Key West, Iowa
Current Conditions -  °F | °C
As of 11:53 AM on Monday 26 Jan 2015 (Local Time) from KDBQ Reporting Station
Haze Haze  
Wind Chill:   Ceiling: 700
Heat Index: 22°   Visibility: 3mi
Dew Point: 19°   Wind: 14mph
Humidity: 89%   Direction: 190°S
Pressure: 29.79"   Gusts: NA
Location:  42.549°N, 90.6988°W
Report Text: KDBQ 261753Z 19012KT 3SM BR OVC007 M06/M07 A2979 RMK AO2 SLP106 60006 T10561072 11056 21072 58030
Loading
Personal Weather Stations






























Interactive Weather Map New forecast layout! Learn more

10-Day Weather Forecast

Advertisements
Track Severe Weather on mobile